Time,TemperatureF,DewpointF,PressureIn,WindDirection,WindDirectionDegrees,WindSpeedMPH,WindSpeedGustMPH,Humidity,HourlyPrecipIn,Conditions,Clouds,dailyrainin,SolarRadiationWatts/m^2,SoftwareType,DateUTC
2013-08-15 00:02:00,62.0,42.0,-100.00,NNW,344,6.0,15.0,47,0.00,,,0.00,0.000000,,2013-08-15 07:02:00,
2013-08-15 00:11:00,62.0,42.0,-100.00,NNW,344,6.0,15.0,47,0.00,,,0.00,0.000000,,2013-08-15 07:11:00,
2013-08-15 00:21:00,62.0,42.0,-100.00,NNW,344,6.0,15.0,47,0.00,,,0.00,0.000000,,2013-08-15 07:21:00,
2013-08-15 00:32:00,62.0,42.0,-100.00,NNW,344,6.0,15.0,47,0.00,,,0.00,0.000000,,2013-08-15 07:32:00,
2013-08-15 00:52:00,62.0,42.0,-100.00,NW,307,7.0,12.0,47,0.00,,,0.00,0.000000,,2013-08-15 07:52:00,
2013-08-15 01:02:00,62.0,42.0,-100.00,NW,307,7.0,12.0,47,0.00,,,0.00,0.000000,,2013-08-15 08:02:00,
2013-08-15 01:11:00,62.0,42.0,-100.00,NW,307,7.0,12.0,47,0.00,,,0.00,0.000000,,2013-08-15 08:11:00,
2013-08-15 01:21:00,62.0,42.0,-100.00,NW,307,7.0,12.0,47,0.00,,,0.00,0.000000,,2013-08-15 08:21:00,
2013-08-15 01:32:00,62.0,42.0,-100.00,NW,307,7.0,12.0,47,0.00,,,0.00,0.000000,,2013-08-15 08:32:00,
2013-08-15 01:52:00,61.0,43.0,-100.00,NW,305,6.0,11.0,51,0.00,,,0.00,0.000000,,2013-08-15 08:52:00,
2013-08-15 02:01:00,61.0,43.0,-100.00,NW,305,6.0,11.0,51,0.00,,,0.00,0.000000,,2013-08-15 09:01:00,
2013-08-15 02:11:00,61.0,43.0,-100.00,NW,305,6.0,11.0,51,0.00,,,0.00,0.000000,,2013-08-15 09:11:00,
2013-08-15 02:21:00,61.0,43.0,-100.00,NW,305,6.0,11.0,51,0.00,,,0.00,0.000000,,2013-08-15 09:21:00,
2013-08-15 02:33:00,61.0,43.0,-100.00,NW,305,6.0,11.0,51,0.00,,,0.00,0.000000,,2013-08-15 09:33:00,
2013-08-15 02:53:00,61.0,44.0,-100.00,WNW,299,7.0,10.0,53,0.00,,,0.00,0.000000,,2013-08-15 09:53:00,
2013-08-15 03:03:00,61.0,44.0,-100.00,WNW,299,7.0,10.0,53,0.00,,,0.00,0.000000,,2013-08-15 10:03:00,
2013-08-15 03:12:00,61.0,44.0,-100.00,WNW,299,7.0,10.0,53,0.00,,,0.00,0.000000,,2013-08-15 10:12:00,
2013-08-15 03:22:00,61.0,44.0,-100.00,WNW,299,7.0,10.0,53,0.00,,,0.00,0.000000,,2013-08-15 10:22:00,
2013-08-15 03:32:00,61.0,44.0,-100.00,WNW,299,7.0,10.0,53,0.00,,,0.00,0.000000,,2013-08-15 10:32:00,
2013-08-15 03:52:00,62.0,45.0,-100.00,WNW,291,7.0,10.0,53,0.00,,,0.00,0.000000,,2013-08-15 10:52:00,
2013-08-15 04:02:00,62.0,45.0,-100.00,WNW,291,7.0,10.0,53,0.00,,,0.00,0.000000,,2013-08-15 11:02:00,
2013-08-15 04:11:00,62.0,45.0,-100.00,WNW,291,7.0,10.0,53,0.00,,,0.00,0.000000,,2013-08-15 11:11:00,
2013-08-15 04:22:00,62.0,45.0,-100.00,WNW,291,7.0,10.0,53,0.00,,,0.00,0.000000,,2013-08-15 11:22:00,
2013-08-15 04:32:00,62.0,45.0,-100.00,WNW,291,7.0,10.0,53,0.00,,,0.00,0.000000,,2013-08-15 11:32:00,
2013-08-15 04:52:00,62.0,44.0,-100.00,WSW,256,1.0,9.0,51,0.00,,,0.00,0.000000,,2013-08-15 11:52:00,
2013-08-15 05:01:00,62.0,44.0,-100.00,WSW,256,1.0,9.0,51,0.00,,,0.00,0.000000,,2013-08-15 12:01:00,
2013-08-15 05:11:00,62.0,44.0,-100.00,WSW,256,1.0,9.0,51,0.00,,,0.00,0.000000,,2013-08-15 12:11:00,
2013-08-15 05:21:00,62.0,44.0,-100.00,WSW,256,1.0,9.0,51,0.00,,,0.00,0.000000,,2013-08-15 12:21:00,
2013-08-15 05:31:00,62.0,44.0,-100.00,WSW,256,1.0,9.0,51,0.00,,,0.00,0.000000,,2013-08-15 12:31:00,
2013-08-15 05:52:00,60.0,43.0,-100.00,East,79,1.0,4.0,53,0.00,,,0.00,0.000000,,2013-08-15 12:52:00,
2013-08-15 06:01:00,60.0,43.0,-100.00,East,79,1.0,4.0,53,0.00,,,0.00,0.000000,,2013-08-15 13:01:00,
2013-08-15 06:11:00,60.0,43.0,-100.00,East,79,1.0,4.0,53,0.00,,,0.00,0.000000,,2013-08-15 13:11:00,
2013-08-15 06:21:00,60.0,43.0,-100.00,East,79,1.0,4.0,53,0.00,,,0.00,0.000000,,2013-08-15 13:21:00,
2013-08-15 06:32:00,60.0,43.0,-100.00,East,79,1.0,4.0,53,0.00,,,0.00,0.000000,,2013-08-15 13:32:00,
2013-08-15 06:52:00,60.0,43.0,-100.00,SE,127,1.0,3.0,54,0.00,,,0.00,4.000000,,2013-08-15 13:52:00,
2013-08-15 07:01:00,60.0,43.0,-100.00,SE,127,1.0,3.0,54,0.00,,,0.00,4.000000,,2013-08-15 14:01:00,
2013-08-15 07:11:00,60.0,43.0,-100.00,SE,127,1.0,3.0,54,0.00,,,0.00,4.000000,,2013-08-15 14:11:00,
2013-08-15 07:22:00,60.0,43.0,-100.00,SE,127,1.0,3.0,54,0.00,,,0.00,4.000000,,2013-08-15 14:22:00,
2013-08-15 07:32:00,60.0,43.0,-100.00,SE,127,1.0,3.0,54,0.00,,,0.00,4.000000,,2013-08-15 14:32:00,
2013-08-15 08:34:00,65.0,45.0,-100.00,South,183,3.0,4.0,48,0.00,,,0.00,255.000000,,2013-08-15 15:34:00,
2013-08-15 08:54:00,65.0,45.0,-100.00,South,183,3.0,4.0,48,0.00,,,0.00,255.000000,,2013-08-15 15:54:00,
2013-08-15 09:03:00,65.0,45.0,-100.00,South,183,3.0,4.0,48,0.00,,,0.00,255.000000,,2013-08-15 16:03:00,
2013-08-15 09:13:00,65.0,45.0,-100.00,South,183,3.0,4.0,48,0.00,,,0.00,255.000000,,2013-08-15 16:13:00,
2013-08-15 09:25:00,65.0,45.0,-100.00,South,183,3.0,4.0,48,0.00,,,0.00,255.000000,,2013-08-15 16:25:00,
2013-08-15 09:34:00,69.0,45.0,-100.00,ESE,106,4.0,6.0,42,0.00,,,0.00,422.000000,,2013-08-15 16:34:00,
2013-08-15 09:55:00,69.0,45.0,-100.00,ESE,106,4.0,6.0,42,0.00,,,0.00,422.000000,,2013-08-15 16:55:00,
2013-08-15 10:06:00,69.0,45.0,-100.00,ESE,106,4.0,6.0,42,0.00,,,0.00,422.000000,,2013-08-15 17:06:00,
2013-08-15 10:18:00,69.0,45.0,-100.00,ESE,106,4.0,6.0,42,0.00,,,0.00,422.000000,,2013-08-15 17:18:00,
2013-08-15 10:30:00,69.0,-99.9,-100.00,ESE,106,4.0,6.0,42,0.00,,,0.00,422.000000,,2013-08-15 17:30:00,
2013-08-15 10:34:00,-999.0,-99.9,-100.00,ESE,104,4.0,7.0,39,0.00,,,0.00,584.000000,,2013-08-15 17:34:00,
2013-08-15 11:00:00,-999.0,-99.9,-100.00,ESE,104,4.0,7.0,-999,-99.99,,,-99.99,584.000000,,2013-08-15 18:00:00,
2013-08-15 11:10:00,72.0,46.0,-100.00,ESE,104,4.0,7.0,39,0.00,,,0.00,584.000000,,2013-08-15 18:10:00,
2013-08-15 11:33:00,-999.0,-99.9,-100.00,ESE,104,4.0,7.0,-999,0.00,,,0.00,584.000000,,2013-08-15 18:33:00,
2013-08-15 11:34:00,74.0,45.0,-100.00,SE,142,5.0,9.0,36,0.00,,,0.00,717.000000,,2013-08-15 18:34:00,
2013-08-15 12:06:00,-999.0,-99.9,-100.00,SE,142,5.0,9.0,-999,0.00,,,0.00,717.000000,,2013-08-15 19:06:00,
2013-08-15 12:17:00,74.0,45.0,-100.00,SE,142,5.0,9.0,36,0.00,,,0.00,717.000000,,2013-08-15 19:17:00,
2013-08-15 12:33:00,-999.0,-99.9,-100.00,SE,142,5.0,9.0,-999,-99.99,,,-99.99,717.000000,,2013-08-15 19:33:00,
2013-08-15 13:11:00,78.0,45.0,-100.00,South,184,5.0,10.0,31,0.00,,,0.00,795.000000,,2013-08-15 20:11:00,
2013-08-15 13:27:00,78.0,45.0,-100.00,South,184,5.0,10.0,31,0.00,,,0.00,795.000000,,2013-08-15 20:27:00,
2013-08-15 13:33:00,78.0,45.0,-100.00,South,184,5.0,10.0,31,0.00,,,0.00,795.000000,,2013-08-15 20:33:00,
2013-08-15 14:05:00,80.0,43.0,-100.00,SSW,195,6.0,11.0,27,0.00,,,0.00,843.000000,,2013-08-15 21:05:00,
2013-08-15 14:17:00,80.0,43.0,-100.00,SSW,195,6.0,11.0,27,0.00,,,0.00,843.000000,,2013-08-15 21:17:00,
2013-08-15 14:33:00,80.0,43.0,-100.00,SSW,195,6.0,11.0,27,0.00,,,0.00,843.000000,,2013-08-15 21:33:00,
2013-08-15 14:34:00,82.0,43.0,-100.00,North,357,5.0,14.0,25,0.00,,,0.00,857.000000,,2013-08-15 21:34:00,
2013-08-15 14:57:00,82.0,43.0,-100.00,North,357,5.0,14.0,25,0.00,,,0.00,857.000000,,2013-08-15 21:57:00,
2013-08-15 15:09:00,82.0,43.0,-100.00,North,357,5.0,14.0,25,0.00,,,0.00,857.000000,,2013-08-15 22:09:00,
2013-08-15 15:17:00,82.0,43.0,-100.00,North,357,5.0,14.0,25,0.00,,,0.00,857.000000,,2013-08-15 22:17:00,
2013-08-15 15:29:00,82.0,43.0,-100.00,North,357,5.0,14.0,25,0.00,,,0.00,857.000000,,2013-08-15 22:29:00,
2013-08-15 15:34:00,-999.0,-99.9,-100.00,NNE,29,8.0,15.0,23,0.00,,,0.00,688.000000,,2013-08-15 22:34:00,
2013-08-15 15:58:00,82.0,41.0,-100.00,NNE,29,8.0,15.0,23,0.00,,,0.00,688.000000,,2013-08-15 22:58:00,
2013-08-15 16:07:00,82.0,41.0,-100.00,NNE,29,8.0,15.0,23,0.00,,,0.00,688.000000,,2013-08-15 23:07:00,
2013-08-15 16:16:00,82.0,41.0,-100.00,NNE,29,8.0,15.0,23,0.00,,,0.00,688.000000,,2013-08-15 23:16:00,
2013-08-15 16:34:00,80.0,47.0,-100.00,North,352,9.0,18.0,31,0.00,,,0.00,404.000000,,2013-08-15 23:34:00,
2013-08-15 16:55:00,80.0,47.0,-100.00,North,352,9.0,18.0,31,0.00,,,0.00,404.000000,,2013-08-15 23:55:00,
2013-08-15 17:08:00,80.0,47.0,-100.00,North,352,9.0,18.0,31,0.00,,,0.00,404.000000,,2013-08-16 00:08:00,
2013-08-15 17:24:00,80.0,47.0,-100.00,North,352,9.0,18.0,31,0.00,,,0.00,404.000000,,2013-08-16 00:24:00,
2013-08-15 17:34:00,-999.0,-99.9,-100.00,NW,326,9.0,-999.0,-999,-99.99,,,-99.99,,,2013-08-16 00:34:00,
2013-08-15 17:52:00,76.0,51.0,-100.00,NW,326,9.0,21.0,41,0.00,,,0.00,193.000000,,2013-08-16 00:52:00,
2013-08-15 18:04:00,76.0,51.0,-100.00,NW,326,9.0,21.0,41,0.00,,,0.00,193.000000,,2013-08-16 01:04:00,
2013-08-15 18:17:00,76.0,51.0,-100.00,NW,326,9.0,21.0,41,0.00,,,0.00,193.000000,,2013-08-16 01:17:00,
2013-08-15 18:26:00,76.0,51.0,-100.00,NW,326,9.0,21.0,41,0.00,,,0.00,193.000000,,2013-08-16 01:26:00,
2013-08-15 18:54:00,73.0,52.0,-100.00,NNW,339,10.0,19.0,47,0.00,,,0.00,252.000000,,2013-08-16 01:54:00,
2013-08-15 19:02:00,73.0,52.0,-100.00,NNW,339,10.0,19.0,47,0.00,,,0.00,252.000000,,2013-08-16 02:02:00,
2013-08-15 19:12:00,73.0,52.0,-100.00,NNW,339,10.0,19.0,47,0.00,,,0.00,252.000000,,2013-08-16 02:12:00,
2013-08-15 19:21:00,73.0,52.0,-100.00,NNW,339,10.0,19.0,47,0.00,,,0.00,252.000000,,2013-08-16 02:21:00,
2013-08-15 19:32:00,73.0,52.0,-100.00,NNW,339,10.0,19.0,47,0.00,,,0.00,252.000000,,2013-08-16 02:32:00,
2013-08-15 19:52:00,68.0,54.0,-100.00,NW,317,11.0,19.0,60,0.00,,,0.00,49.000000,,2013-08-16 02:52:00,
2013-08-15 20:03:00,68.0,54.0,-100.00,NW,317,11.0,19.0,60,0.00,,,0.00,49.000000,,2013-08-16 03:03:00,
2013-08-15 20:11:00,68.0,54.0,-100.00,NW,317,11.0,19.0,60,0.00,,,0.00,49.000000,,2013-08-16 03:11:00,
2013-08-15 20:21:00,68.0,54.0,-100.00,NW,317,11.0,19.0,60,0.00,,,0.00,49.000000,,2013-08-16 03:21:00,
2013-08-15 20:33:00,68.0,54.0,-100.00,NW,317,11.0,19.0,60,0.00,,,0.00,49.000000,,2013-08-16 03:33:00,
2013-08-15 20:53:00,66.0,53.0,-100.00,NNW,338,10.0,18.0,62,0.00,,,0.00,14.000000,,2013-08-16 03:53:00,
2013-08-15 21:03:00,66.0,53.0,-100.00,NNW,338,10.0,18.0,62,0.00,,,0.00,14.000000,,2013-08-16 04:03:00,
2013-08-15 21:13:00,66.0,53.0,-100.00,NNW,338,10.0,18.0,62,0.00,,,0.00,14.000000,,2013-08-16 04:13:00,
2013-08-15 21:23:00,66.0,53.0,-100.00,NNW,338,10.0,18.0,62,0.00,,,0.00,14.000000,,2013-08-16 04:23:00,
2013-08-15 21:33:00,66.0,53.0,-100.00,NNW,338,10.0,18.0,62,0.00,,,0.00,14.000000,,2013-08-16 04:33:00,
2013-08-15 21:53:00,64.0,52.0,-100.00,NW,322,10.0,17.0,66,0.00,,,0.00,0.000000,,2013-08-16 04:53:00,
2013-08-15 22:02:00,64.0,52.0,-100.00,NW,322,10.0,17.0,66,0.00,,,0.00,0.000000,,2013-08-16 05:02:00,
2013-08-15 22:11:00,64.0,52.0,-100.00,NW,322,10.0,17.0,66,0.00,,,0.00,0.000000,,2013-08-16 05:11:00,
2013-08-15 22:21:00,64.0,52.0,-100.00,NW,322,10.0,17.0,66,0.00,,,0.00,0.000000,,2013-08-16 05:21:00,
2013-08-15 22:31:00,64.0,52.0,-100.00,NW,322,10.0,17.0,66,0.00,,,0.00,0.000000,,2013-08-16 05:31:00,